sensor_id;sensor_type;location;lat;lon;timestamp;P1;durP1;ratioP1;P2;durP2;ratioP2
14060;SDS011;7105;43.616;1.434;2022-11-15T00:00:49;4.80;;;3.93;;
14060;SDS011;7105;43.616;1.434;2022-11-15T00:03:16;5.33;;;4.47;;
14060;SDS011;7105;43.616;1.434;2022-11-15T00:05:43;5.70;;;4.43;;
14060;SDS011;7105;43.616;1.434;2022-11-15T00:08:09;5.47;;;4.73;;
14060;SDS011;7105;43.616;1.434;2022-11-15T00:10:36;5.50;;;4.97;;
14060;SDS011;7105;43.616;1.434;2022-11-15T00:13:05;5.03;;;4.50;;
14060;SDS011;7105;43.616;1.434;2022-11-15T00:15:34;6.77;;;4.77;;
14060;SDS011;7105;43.616;1.434;2022-11-15T00:18:01;6.23;;;4.60;;
14060;SDS011;7105;43.616;1.434;2022-11-15T00:20:27;7.13;;;4.43;;
14060;SDS011;7105;43.616;1.434;2022-11-15T00:22:53;5.53;;;4.37;;
14060;SDS011;7105;43.616;1.434;2022-11-15T00:25:18;5.17;;;3.90;;
14060;SDS011;7105;43.616;1.434;2022-11-15T00:27:44;5.00;;;4.50;;
14060;SDS011;7105;43.616;1.434;2022-11-15T00:30:10;6.17;;;4.20;;
14060;SDS011;7105;43.616;1.434;2022-11-15T00:32:36;4.87;;;4.20;;
14060;SDS011;7105;43.616;1.434;2022-11-15T00:35:02;4.80;;;4.00;;
14060;SDS011;7105;43.616;1.434;2022-11-15T00:37:28;6.50;;;4.63;;
14060;SDS011;7105;43.616;1.434;2022-11-15T00:39:53;6.13;;;4.70;;
14060;SDS011;7105;43.616;1.434;2022-11-15T00:42:19;5.17;;;4.63;;
14060;SDS011;7105;43.616;1.434;2022-11-15T00:44:45;7.13;;;4.93;;
14060;SDS011;7105;43.616;1.434;2022-11-15T00:47:10;5.37;;;4.83;;
14060;SDS011;7105;43.616;1.434;2022-11-15T00:49:36;6.50;;;5.47;;
14060;SDS011;7105;43.616;1.434;2022-11-15T00:52:02;6.97;;;6.27;;
14060;SDS011;7105;43.616;1.434;2022-11-15T00:54:27;7.10;;;6.00;;
14060;SDS011;7105;43.616;1.434;2022-11-15T00:56:53;9.70;;;7.20;;
14060;SDS011;7105;43.616;1.434;2022-11-15T00:59:19;7.97;;;7.17;;
14060;SDS011;7105;43.616;1.434;2022-11-15T01:01:44;7.43;;;6.63;;
14060;SDS011;7105;43.616;1.434;2022-11-15T01:04:10;10.57;;;6.67;;
14060;SDS011;7105;43.616;1.434;2022-11-15T01:06:36;7.77;;;6.33;;
14060;SDS011;7105;43.616;1.434;2022-11-15T01:09:01;7.77;;;6.00;;
14060;SDS011;7105;43.616;1.434;2022-11-15T01:11:27;8.10;;;6.17;;
14060;SDS011;7105;43.616;1.434;2022-11-15T01:13:53;8.73;;;5.97;;
14060;SDS011;7105;43.616;1.434;2022-11-15T01:16:20;7.20;;;5.60;;
14060;SDS011;7105;43.616;1.434;2022-11-15T01:18:46;7.63;;;6.30;;
14060;SDS011;7105;43.616;1.434;2022-11-15T01:21:13;9.03;;;5.97;;
14060;SDS011;7105;43.616;1.434;2022-11-15T01:23:41;8.17;;;6.27;;
14060;SDS011;7105;43.616;1.434;2022-11-15T01:26:09;6.73;;;5.73;;
14060;SDS011;7105;43.616;1.434;2022-11-15T01:28:38;9.30;;;6.10;;
14060;SDS011;7105;43.616;1.434;2022-11-15T01:31:15;9.30;;;5.47;;
14060;SDS011;7105;43.616;1.434;2022-11-15T01:33:43;7.57;;;5.93;;
14060;SDS011;7105;43.616;1.434;2022-11-15T01:36:13;6.60;;;5.60;;
14060;SDS011;7105;43.616;1.434;2022-11-15T01:38:41;8.37;;;5.20;;
14060;SDS011;7105;43.616;1.434;2022-11-15T01:41:13;6.40;;;5.43;;
14060;SDS011;7105;43.616;1.434;2022-11-15T01:43:43;8.47;;;5.23;;
14060;SDS011;7105;43.616;1.434;2022-11-15T01:48:59;7.10;;;5.57;;
14060;SDS011;7105;43.616;1.434;2022-11-15T01:51:29;7.37;;;6.40;;
14060;SDS011;7105;43.616;1.434;2022-11-15T01:53:58;8.80;;;6.10;;
14060;SDS011;7105;43.616;1.434;2022-11-15T01:56:36;10.03;;;6.60;;
14060;SDS011;7105;43.616;1.434;2022-11-15T01:59:08;10.83;;;7.13;;
14060;SDS011;7105;43.616;1.434;2022-11-15T02:01:35;10.87;;;6.73;;
14060;SDS011;7105;43.616;1.434;2022-11-15T02:04:10;9.17;;;7.47;;
14060;SDS011;7105;43.616;1.434;2022-11-15T02:06:57;8.93;;;6.53;;
14060;SDS011;7105;43.616;1.434;2022-11-15T02:09:24;11.07;;;7.07;;
14060;SDS011;7105;43.616;1.434;2022-11-15T02:11:50;10.67;;;7.37;;
14060;SDS011;7105;43.616;1.434;2022-11-15T02:14:18;9.57;;;7.30;;
14060;SDS011;7105;43.616;1.434;2022-11-15T02:19:36;8.83;;;7.23;;
14060;SDS011;7105;43.616;1.434;2022-11-15T02:28:15;9.93;;;8.13;;
14060;SDS011;7105;43.616;1.434;2022-11-15T02:38:54;9.53;;;6.50;;
14060;SDS011;7105;43.616;1.434;2022-11-15T02:41:40;8.87;;;6.67;;
14060;SDS011;7105;43.616;1.434;2022-11-15T02:44:14;8.70;;;7.10;;
14060;SDS011;7105;43.616;1.434;2022-11-15T02:46:52;9.00;;;7.37;;
14060;SDS011;7105;43.616;1.434;2022-11-15T02:49:46;9.10;;;6.70;;
14060;SDS011;7105;43.616;1.434;2022-11-15T02:52:15;9.87;;;6.77;;
14060;SDS011;7105;43.616;1.434;2022-11-15T02:54:42;11.13;;;6.70;;
14060;SDS011;7105;43.616;1.434;2022-11-15T02:57:12;11.03;;;6.93;;
14060;SDS011;7105;43.616;1.434;2022-11-15T02:59:46;9.63;;;6.73;;
14060;SDS011;7105;43.616;1.434;2022-11-15T03:05:42;9.67;;;7.47;;
14060;SDS011;7105;43.616;1.434;2022-11-15T03:10:21;7.90;;;6.77;;
14060;SDS011;7105;43.616;1.434;2022-11-15T03:15:36;14.40;;;6.57;;
14060;SDS011;7105;43.616;1.434;2022-11-15T03:18:08;10.23;;;6.60;;
14060;SDS011;7105;43.616;1.434;2022-11-15T03:20:40;8.87;;;6.43;;
14060;SDS011;7105;43.616;1.434;2022-11-15T03:23:09;8.60;;;6.27;;
14060;SDS011;7105;43.616;1.434;2022-11-15T03:25:37;9.13;;;6.40;;
14060;SDS011;7105;43.616;1.434;2022-11-15T03:28:11;8.83;;;6.00;;
14060;SDS011;7105;43.616;1.434;2022-11-15T03:30:40;9.03;;;6.40;;
14060;SDS011;7105;43.616;1.434;2022-11-15T03:33:07;9.03;;;6.40;;
14060;SDS011;7105;43.616;1.434;2022-11-15T03:35:37;7.67;;;5.73;;
14060;SDS011;7105;43.616;1.434;2022-11-15T03:38:26;7.67;;;6.30;;
14060;SDS011;7105;43.616;1.434;2022-11-15T03:41:04;9.90;;;6.37;;
14060;SDS011;7105;43.616;1.434;2022-11-15T03:46:26;9.43;;;5.87;;
14060;SDS011;7105;43.616;1.434;2022-11-15T03:49:15;11.13;;;5.80;;
14060;SDS011;7105;43.616;1.434;2022-11-15T03:51:46;9.27;;;5.57;;
14060;SDS011;7105;43.616;1.434;2022-11-15T03:54:12;7.50;;;5.53;;
14060;SDS011;7105;43.616;1.434;2022-11-15T03:56:38;8.73;;;5.83;;
14060;SDS011;7105;43.616;1.434;2022-11-15T03:59:03;7.27;;;5.90;;
14060;SDS011;7105;43.616;1.434;2022-11-15T04:01:29;9.80;;;6.10;;
14060;SDS011;7105;43.616;1.434;2022-11-15T04:03:55;8.50;;;5.80;;
14060;SDS011;7105;43.616;1.434;2022-11-15T04:06:20;12.80;;;5.90;;
14060;SDS011;7105;43.616;1.434;2022-11-15T04:08:46;15.17;;;5.70;;
14060;SDS011;7105;43.616;1.434;2022-11-15T04:11:12;9.40;;;5.80;;
14060;SDS011;7105;43.616;1.434;2022-11-15T04:13:37;10.43;;;5.77;;
14060;SDS011;7105;43.616;1.434;2022-11-15T04:16:03;8.57;;;5.63;;
14060;SDS011;7105;43.616;1.434;2022-11-15T04:18:29;10.67;;;6.57;;
14060;SDS011;7105;43.616;1.434;2022-11-15T04:20:54;9.27;;;6.50;;
14060;SDS011;7105;43.616;1.434;2022-11-15T04:23:39;7.93;;;6.10;;
14060;SDS011;7105;43.616;1.434;2022-11-15T04:26:20;10.57;;;6.93;;
14060;SDS011;7105;43.616;1.434;2022-11-15T04:28:47;11.13;;;6.43;;
14060;SDS011;7105;43.616;1.434;2022-11-15T04:31:31;9.73;;;6.57;;
14060;SDS011;7105;43.616;1.434;2022-11-15T04:33:57;9.33;;;6.70;;
14060;SDS011;7105;43.616;1.434;2022-11-15T04:36:23;8.97;;;6.50;;
14060;SDS011;7105;43.616;1.434;2022-11-15T04:39:08;11.17;;;6.63;;
14060;SDS011;7105;43.616;1.434;2022-11-15T04:41:33;12.20;;;6.90;;
14060;SDS011;7105;43.616;1.434;2022-11-15T04:43:59;10.07;;;7.20;;
14060;SDS011;7105;43.616;1.434;2022-11-15T04:46:25;9.67;;;6.57;;
14060;SDS011;7105;43.616;1.434;2022-11-15T04:48:51;8.33;;;7.00;;
14060;SDS011;7105;43.616;1.434;2022-11-15T04:51:17;10.90;;;7.07;;
14060;SDS011;7105;43.616;1.434;2022-11-15T04:53:43;13.63;;;7.30;;
14060;SDS011;7105;43.616;1.434;2022-11-15T04:56:09;12.73;;;7.03;;
14060;SDS011;7105;43.616;1.434;2022-11-15T04:58:35;10.63;;;7.37;;
14060;SDS011;7105;43.616;1.434;2022-11-15T05:01:07;11.10;;;7.60;;
14060;SDS011;7105;43.616;1.434;2022-11-15T05:03:33;9.43;;;7.30;;
14060;SDS011;7105;43.616;1.434;2022-11-15T05:06:17;12.33;;;7.50;;
14060;SDS011;7105;43.616;1.434;2022-11-15T05:08:43;11.43;;;6.93;;
14060;SDS011;7105;43.616;1.434;2022-11-15T05:11:08;10.00;;;7.57;;
14060;SDS011;7105;43.616;1.434;2022-11-15T05:13:34;13.07;;;7.57;;
14060;SDS011;7105;43.616;1.434;2022-11-15T05:16:00;13.97;;;7.80;;
14060;SDS011;7105;43.616;1.434;2022-11-15T05:18:25;13.43;;;7.90;;
14060;SDS011;7105;43.616;1.434;2022-11-15T05:20:51;12.30;;;7.73;;
14060;SDS011;7105;43.616;1.434;2022-11-15T05:23:17;12.23;;;7.57;;
14060;SDS011;7105;43.616;1.434;2022-11-15T05:25:42;10.60;;;7.67;;
14060;SDS011;7105;43.616;1.434;2022-11-15T05:28:08;10.10;;;7.40;;
14060;SDS011;7105;43.616;1.434;2022-11-15T05:30:34;17.17;;;8.20;;
14060;SDS011;7105;43.616;1.434;2022-11-15T05:32:59;11.53;;;7.90;;
14060;SDS011;7105;43.616;1.434;2022-11-15T05:35:33;14.97;;;7.87;;
14060;SDS011;7105;43.616;1.434;2022-11-15T05:38:05;12.97;;;8.60;;
14060;SDS011;7105;43.616;1.434;2022-11-15T05:40:30;12.33;;;7.63;;
14060;SDS011;7105;43.616;1.434;2022-11-15T05:42:56;12.87;;;8.73;;
14060;SDS011;7105;43.616;1.434;2022-11-15T05:45:24;12.50;;;8.10;;
14060;SDS011;7105;43.616;1.434;2022-11-15T05:47:50;13.50;;;7.80;;
14060;SDS011;7105;43.616;1.434;2022-11-15T05:50:17;9.97;;;7.73;;
14060;SDS011;7105;43.616;1.434;2022-11-15T05:52:44;15.43;;;9.00;;
14060;SDS011;7105;43.616;1.434;2022-11-15T05:55:11;17.00;;;9.13;;
14060;SDS011;7105;43.616;1.434;2022-11-15T05:57:37;17.33;;;8.60;;
14060;SDS011;7105;43.616;1.434;2022-11-15T06:00:03;15.27;;;8.73;;
14060;SDS011;7105;43.616;1.434;2022-11-15T06:02:29;16.57;;;8.13;;
14060;SDS011;7105;43.616;1.434;2022-11-15T06:04:55;13.63;;;8.30;;
14060;SDS011;7105;43.616;1.434;2022-11-15T06:07:21;15.73;;;8.73;;
14060;SDS011;7105;43.616;1.434;2022-11-15T06:09:47;16.73;;;9.27;;
14060;SDS011;7105;43.616;1.434;2022-11-15T06:12:13;16.07;;;9.13;;
14060;SDS011;7105;43.616;1.434;2022-11-15T06:14:38;11.63;;;9.10;;
14060;SDS011;7105;43.616;1.434;2022-11-15T06:17:04;11.63;;;8.30;;
14060;SDS011;7105;43.616;1.434;2022-11-15T06:19:29;18.23;;;9.00;;
14060;SDS011;7105;43.616;1.434;2022-11-15T06:21:58;12.87;;;8.83;;
14060;SDS011;7105;43.616;1.434;2022-11-15T06:24:24;14.90;;;9.47;;
14060;SDS011;7105;43.616;1.434;2022-11-15T06:26:50;17.33;;;9.10;;
14060;SDS011;7105;43.616;1.434;2022-11-15T06:29:16;15.63;;;10.27;;
14060;SDS011;7105;43.616;1.434;2022-11-15T06:31:41;18.13;;;9.60;;
14060;SDS011;7105;43.616;1.434;2022-11-15T06:34:07;16.40;;;9.83;;
14060;SDS011;7105;43.616;1.434;2022-11-15T06:36:34;16.77;;;9.50;;
14060;SDS011;7105;43.616;1.434;2022-11-15T06:39:01;18.33;;;9.40;;
14060;SDS011;7105;43.616;1.434;2022-11-15T06:41:28;15.53;;;9.50;;
14060;SDS011;7105;43.616;1.434;2022-11-15T06:43:53;20.20;;;9.80;;
14060;SDS011;7105;43.616;1.434;2022-11-15T06:46:19;15.27;;;9.20;;
14060;SDS011;7105;43.616;1.434;2022-11-15T06:48:44;15.70;;;9.30;;
14060;SDS011;7105;43.616;1.434;2022-11-15T06:51:10;12.97;;;9.50;;
14060;SDS011;7105;43.616;1.434;2022-11-15T06:53:36;13.17;;;9.20;;
14060;SDS011;7105;43.616;1.434;2022-11-15T06:56:02;16.03;;;9.27;;
14060;SDS011;7105;43.616;1.434;2022-11-15T06:58:29;13.20;;;9.23;;
14060;SDS011;7105;43.616;1.434;2022-11-15T07:00:59;17.83;;;8.90;;
14060;SDS011;7105;43.616;1.434;2022-11-15T07:03:26;15.67;;;9.57;;
14060;SDS011;7105;43.616;1.434;2022-11-15T07:05:55;19.33;;;8.80;;
14060;SDS011;7105;43.616;1.434;2022-11-15T07:08:22;15.47;;;8.97;;
14060;SDS011;7105;43.616;1.434;2022-11-15T07:10:48;14.20;;;9.17;;
14060;SDS011;7105;43.616;1.434;2022-11-15T07:13:14;19.83;;;10.00;;
14060;SDS011;7105;43.616;1.434;2022-11-15T07:15:40;15.20;;;9.20;;
14060;SDS011;7105;43.616;1.434;2022-11-15T07:18:06;13.57;;;8.37;;
14060;SDS011;7105;43.616;1.434;2022-11-15T07:20:31;17.17;;;8.70;;
14060;SDS011;7105;43.616;1.434;2022-11-15T07:23:00;14.47;;;9.30;;
14060;SDS011;7105;43.616;1.434;2022-11-15T07:25:27;17.10;;;8.60;;
14060;SDS011;7105;43.616;1.434;2022-11-15T07:27:54;14.03;;;7.73;;
14060;SDS011;7105;43.616;1.434;2022-11-15T07:30:21;18.03;;;9.23;;
14060;SDS011;7105;43.616;1.434;2022-11-15T07:32:47;13.17;;;8.03;;
14060;SDS011;7105;43.616;1.434;2022-11-15T07:35:16;18.20;;;8.87;;
14060;SDS011;7105;43.616;1.434;2022-11-15T07:37:42;12.37;;;8.77;;
14060;SDS011;7105;43.616;1.434;2022-11-15T07:40:08;15.40;;;8.23;;
14060;SDS011;7105;43.616;1.434;2022-11-15T07:42:34;12.03;;;8.03;;
14060;SDS011;7105;43.616;1.434;2022-11-15T07:45:18;11.03;;;8.17;;
14060;SDS011;7105;43.616;1.434;2022-11-15T07:47:48;9.60;;;7.73;;
14060;SDS011;7105;43.616;1.434;2022-11-15T07:50:15;12.10;;;7.97;;
14060;SDS011;7105;43.616;1.434;2022-11-15T07:52:41;13.10;;;7.47;;
14060;SDS011;7105;43.616;1.434;2022-11-15T07:55:07;12.57;;;7.87;;
14060;SDS011;7105;43.616;1.434;2022-11-15T07:57:34;17.73;;;8.23;;
14060;SDS011;7105;43.616;1.434;2022-11-15T07:59:59;15.20;;;8.07;;
14060;SDS011;7105;43.616;1.434;2022-11-15T08:02:25;12.30;;;7.47;;
14060;SDS011;7105;43.616;1.434;2022-11-15T08:04:51;13.57;;;7.03;;
14060;SDS011;7105;43.616;1.434;2022-11-15T08:07:16;12.13;;;6.90;;
14060;SDS011;7105;43.616;1.434;2022-11-15T08:09:42;12.30;;;7.60;;
14060;SDS011;7105;43.616;1.434;2022-11-15T08:12:08;11.10;;;7.17;;
14060;SDS011;7105;43.616;1.434;2022-11-15T08:14:34;14.07;;;7.67;;
14060;SDS011;7105;43.616;1.434;2022-11-15T08:17:00;14.30;;;7.67;;
14060;SDS011;7105;43.616;1.434;2022-11-15T08:19:26;15.00;;;8.47;;
14060;SDS011;7105;43.616;1.434;2022-11-15T08:21:52;12.73;;;8.40;;
14060;SDS011;7105;43.616;1.434;2022-11-15T08:24:17;16.67;;;8.00;;
14060;SDS011;7105;43.616;1.434;2022-11-15T08:26:43;15.57;;;8.73;;
14060;SDS011;7105;43.616;1.434;2022-11-15T08:29:09;13.00;;;8.13;;
14060;SDS011;7105;43.616;1.434;2022-11-15T08:31:35;14.20;;;8.07;;
14060;SDS011;7105;43.616;1.434;2022-11-15T08:34:02;15.40;;;8.00;;
14060;SDS011;7105;43.616;1.434;2022-11-15T08:36:28;12.60;;;8.47;;
14060;SDS011;7105;43.616;1.434;2022-11-15T08:38:54;15.23;;;8.40;;
14060;SDS011;7105;43.616;1.434;2022-11-15T08:41:24;16.40;;;8.40;;
14060;SDS011;7105;43.616;1.434;2022-11-15T08:43:53;18.23;;;7.80;;
14060;SDS011;7105;43.616;1.434;2022-11-15T08:46:19;9.97;;;6.77;;
14060;SDS011;7105;43.616;1.434;2022-11-15T08:48:44;11.10;;;7.77;;
14060;SDS011;7105;43.616;1.434;2022-11-15T08:51:10;13.70;;;7.33;;
14060;SDS011;7105;43.616;1.434;2022-11-15T08:53:36;12.60;;;7.53;;
14060;SDS011;7105;43.616;1.434;2022-11-15T08:56:01;16.67;;;7.50;;
14060;SDS011;7105;43.616;1.434;2022-11-15T08:58:27;11.60;;;7.77;;
14060;SDS011;7105;43.616;1.434;2022-11-15T09:00:53;14.20;;;7.50;;
14060;SDS011;7105;43.616;1.434;2022-11-15T09:03:20;12.80;;;7.50;;
14060;SDS011;7105;43.616;1.434;2022-11-15T09:05:45;15.10;;;8.57;;
14060;SDS011;7105;43.616;1.434;2022-11-15T09:08:11;13.37;;;7.57;;
14060;SDS011;7105;43.616;1.434;2022-11-15T09:10:37;12.27;;;7.60;;
14060;SDS011;7105;43.616;1.434;2022-11-15T09:13:03;14.70;;;8.30;;
14060;SDS011;7105;43.616;1.434;2022-11-15T09:15:29;13.53;;;8.20;;
14060;SDS011;7105;43.616;1.434;2022-11-15T09:17:57;9.53;;;7.13;;
14060;SDS011;7105;43.616;1.434;2022-11-15T09:20:24;11.60;;;6.70;;
14060;SDS011;7105;43.616;1.434;2022-11-15T09:22:50;10.83;;;7.93;;
14060;SDS011;7105;43.616;1.434;2022-11-15T09:25:15;13.57;;;7.53;;
14060;SDS011;7105;43.616;1.434;2022-11-15T09:27:41;10.30;;;7.80;;
14060;SDS011;7105;43.616;1.434;2022-11-15T09:30:07;11.70;;;7.73;;
14060;SDS011;7105;43.616;1.434;2022-11-15T09:32:33;11.00;;;7.40;;
14060;SDS011;7105;43.616;1.434;2022-11-15T09:34:59;12.20;;;7.50;;
14060;SDS011;7105;43.616;1.434;2022-11-15T09:37:24;13.13;;;8.03;;
14060;SDS011;7105;43.616;1.434;2022-11-15T09:39:50;11.37;;;7.33;;
14060;SDS011;7105;43.616;1.434;2022-11-15T09:50:48;16.80;;;7.83;;
14060;SDS011;7105;43.616;1.434;2022-11-15T09:53:34;13.97;;;8.07;;
14060;SDS011;7105;43.616;1.434;2022-11-15T09:56:22;8.90;;;7.27;;
14060;SDS011;7105;43.616;1.434;2022-11-15T10:04:15;13.17;;;7.53;;
14060;SDS011;7105;43.616;1.434;2022-11-15T10:06:43;10.83;;;7.07;;
14060;SDS011;7105;43.616;1.434;2022-11-15T10:11:48;10.13;;;7.13;;
14060;SDS011;7105;43.616;1.434;2022-11-15T10:14:15;12.73;;;7.97;;
14060;SDS011;7105;43.616;1.434;2022-11-15T10:25:28;10.57;;;7.07;;
14060;SDS011;7105;43.616;1.434;2022-11-15T10:27:52;11.10;;;7.07;;
14060;SDS011;7105;43.616;1.434;2022-11-15T10:30:18;10.60;;;6.47;;
14060;SDS011;7105;43.616;1.434;2022-11-15T10:32:48;10.17;;;6.60;;
14060;SDS011;7105;43.616;1.434;2022-11-15T10:35:18;10.93;;;6.97;;
14060;SDS011;7105;43.616;1.434;2022-11-15T10:37:52;11.63;;;6.73;;
14060;SDS011;7105;43.616;1.434;2022-11-15T10:40:33;12.40;;;6.87;;
14060;SDS011;7105;43.616;1.434;2022-11-15T10:43:18;9.07;;;6.63;;
14060;SDS011;7105;43.616;1.434;2022-11-15T10:45:45;13.33;;;6.17;;
14060;SDS011;7105;43.616;1.434;2022-11-15T10:50:37;10.40;;;7.00;;
14060;SDS011;7105;43.616;1.434;2022-11-15T10:53:10;10.80;;;6.40;;
14060;SDS011;7105;43.616;1.434;2022-11-15T10:55:41;11.40;;;6.50;;
14060;SDS011;7105;43.616;1.434;2022-11-15T10:58:50;11.30;;;6.57;;
14060;SDS011;7105;43.616;1.434;2022-11-15T11:01:10;11.70;;;6.87;;
14060;SDS011;7105;43.616;1.434;2022-11-15T11:03:41;9.90;;;6.40;;
14060;SDS011;7105;43.616;1.434;2022-11-15T11:06:15;13.37;;;6.87;;
14060;SDS011;7105;43.616;1.434;2022-11-15T11:08:52;10.47;;;7.30;;
14060;SDS011;7105;43.616;1.434;2022-11-15T11:11:24;11.17;;;7.13;;
14060;SDS011;7105;43.616;1.434;2022-11-15T11:13:50;13.77;;;6.93;;
14060;SDS011;7105;43.616;1.434;2022-11-15T11:16:22;8.47;;;6.60;;
14060;SDS011;7105;43.616;1.434;2022-11-15T11:19:17;9.57;;;6.67;;
14060;SDS011;7105;43.616;1.434;2022-11-15T11:22:09;10.47;;;6.80;;
14060;SDS011;7105;43.616;1.434;2022-11-15T11:27:36;11.40;;;7.10;;
14060;SDS011;7105;43.616;1.434;2022-11-15T11:32:49;13.07;;;7.40;;
14060;SDS011;7105;43.616;1.434;2022-11-15T11:35:30;8.83;;;6.37;;
14060;SDS011;7105;43.616;1.434;2022-11-15T11:41:04;9.67;;;6.83;;
14060;SDS011;7105;43.616;1.434;2022-11-15T11:46:23;10.17;;;6.47;;
14060;SDS011;7105;43.616;1.434;2022-11-15T11:49:04;13.07;;;7.43;;
14060;SDS011;7105;43.616;1.434;2022-11-15T11:51:54;11.20;;;7.13;;
14060;SDS011;7105;43.616;1.434;2022-11-15T11:57:03;9.03;;;6.30;;
14060;SDS011;7105;43.616;1.434;2022-11-15T11:59:43;9.37;;;6.53;;
14060;SDS011;7105;43.616;1.434;2022-11-15T12:02:21;8.40;;;6.80;;
14060;SDS011;7105;43.616;1.434;2022-11-15T12:04:56;13.03;;;7.77;;
14060;SDS011;7105;43.616;1.434;2022-11-15T12:07:47;11.33;;;7.07;;
14060;SDS011;7105;43.616;1.434;2022-11-15T12:10:25;11.33;;;6.63;;
14060;SDS011;7105;43.616;1.434;2022-11-15T12:15:30;9.60;;;6.80;;
14060;SDS011;7105;43.616;1.434;2022-11-15T12:18:17;9.00;;;6.90;;
14060;SDS011;7105;43.616;1.434;2022-11-15T12:20:52;9.57;;;6.83;;
14060;SDS011;7105;43.616;1.434;2022-11-15T12:23:27;12.63;;;7.17;;
14060;SDS011;7105;43.616;1.434;2022-11-15T12:26:06;13.27;;;7.13;;
14060;SDS011;7105;43.616;1.434;2022-11-15T12:28:45;8.50;;;6.90;;
14060;SDS011;7105;43.616;1.434;2022-11-15T12:33:47;9.57;;;7.37;;
14060;SDS011;7105;43.616;1.434;2022-11-15T12:38:59;10.60;;;7.13;;
14060;SDS011;7105;43.616;1.434;2022-11-15T12:41:34;14.93;;;7.33;;
14060;SDS011;7105;43.616;1.434;2022-11-15T12:44:01;11.57;;;7.10;;
14060;SDS011;7105;43.616;1.434;2022-11-15T12:48:54;10.07;;;7.10;;
14060;SDS011;7105;43.616;1.434;2022-11-15T12:51:22;13.23;;;7.20;;
14060;SDS011;7105;43.616;1.434;2022-11-15T13:04:52;9.00;;;6.97;;
14060;SDS011;7105;43.616;1.434;2022-11-15T13:28:38;11.03;;;7.60;;
14060;SDS011;7105;43.616;1.434;2022-11-15T13:33:44;11.03;;;7.43;;
14060;SDS011;7105;43.616;1.434;2022-11-15T13:38:56;10.70;;;7.00;;
14060;SDS011;7105;43.616;1.434;2022-11-15T13:41:45;9.83;;;6.93;;
14060;SDS011;7105;43.616;1.434;2022-11-15T13:44:22;11.23;;;7.30;;
14060;SDS011;7105;43.616;1.434;2022-11-15T13:47:35;9.37;;;7.10;;
14060;SDS011;7105;43.616;1.434;2022-11-15T13:49:39;14.30;;;7.30;;
14060;SDS011;7105;43.616;1.434;2022-11-15T13:52:06;13.73;;;7.87;;
14060;SDS011;7105;43.616;1.434;2022-11-15T13:54:40;12.23;;;7.13;;
14060;SDS011;7105;43.616;1.434;2022-11-15T13:57:18;9.17;;;7.17;;
14060;SDS011;7105;43.616;1.434;2022-11-15T14:00:21;12.07;;;7.60;;
14060;SDS011;7105;43.616;1.434;2022-11-15T14:02:50;9.90;;;7.20;;
14060;SDS011;7105;43.616;1.434;2022-11-15T14:05:18;11.77;;;7.10;;
14060;SDS011;7105;43.616;1.434;2022-11-15T14:07:53;9.00;;;6.30;;
14060;SDS011;7105;43.616;1.434;2022-11-15T14:12:53;10.63;;;7.40;;
14060;SDS011;7105;43.616;1.434;2022-11-15T14:17:53;8.57;;;7.10;;
14060;SDS011;7105;43.616;1.434;2022-11-15T14:20:19;11.67;;;7.23;;
14060;SDS011;7105;43.616;1.434;2022-11-15T14:22:52;13.20;;;7.43;;
14060;SDS011;7105;43.616;1.434;2022-11-15T14:25:20;11.67;;;7.63;;
14060;SDS011;7105;43.616;1.434;2022-11-15T14:30:55;11.07;;;8.60;;
14060;SDS011;7105;43.616;1.434;2022-11-15T14:36:12;11.63;;;7.93;;
14060;SDS011;7105;43.616;1.434;2022-11-15T14:38:38;11.70;;;7.20;;
14060;SDS011;7105;43.616;1.434;2022-11-15T14:41:05;13.23;;;7.00;;
14060;SDS011;7105;43.616;1.434;2022-11-15T14:43:32;9.87;;;7.23;;
14060;SDS011;7105;43.616;1.434;2022-11-15T14:45:58;9.33;;;6.87;;
14060;SDS011;7105;43.616;1.434;2022-11-15T14:48:24;13.40;;;7.73;;
14060;SDS011;7105;43.616;1.434;2022-11-15T14:50:49;12.63;;;7.37;;
14060;SDS011;7105;43.616;1.434;2022-11-15T14:53:16;12.60;;;7.53;;
14060;SDS011;7105;43.616;1.434;2022-11-15T14:55:42;12.37;;;7.70;;
14060;SDS011;7105;43.616;1.434;2022-11-15T14:58:08;8.17;;;6.80;;
14060;SDS011;7105;43.616;1.434;2022-11-15T15:00:35;10.30;;;7.70;;
14060;SDS011;7105;43.616;1.434;2022-11-15T15:03:02;16.60;;;8.13;;
14060;SDS011;7105;43.616;1.434;2022-11-15T15:06:02;14.17;;;8.27;;
14060;SDS011;7105;43.616;1.434;2022-11-15T15:08:21;10.93;;;8.10;;
14060;SDS011;7105;43.616;1.434;2022-11-15T15:10:46;13.53;;;8.27;;
14060;SDS011;7105;43.616;1.434;2022-11-15T15:13:15;11.77;;;7.97;;
14060;SDS011;7105;43.616;1.434;2022-11-15T15:15:46;11.83;;;8.13;;
14060;SDS011;7105;43.616;1.434;2022-11-15T15:18:12;11.50;;;8.27;;
14060;SDS011;7105;43.616;1.434;2022-11-15T15:20:39;11.27;;;8.13;;
14060;SDS011;7105;43.616;1.434;2022-11-15T15:23:16;15.90;;;9.10;;
14060;SDS011;7105;43.616;1.434;2022-11-15T15:25:43;14.00;;;8.30;;
14060;SDS011;7105;43.616;1.434;2022-11-15T15:28:10;11.93;;;7.73;;
14060;SDS011;7105;43.616;1.434;2022-11-15T15:30:36;16.33;;;8.10;;
14060;SDS011;7105;43.616;1.434;2022-11-15T15:33:02;12.13;;;8.40;;
14060;SDS011;7105;43.616;1.434;2022-11-15T15:35:29;11.93;;;8.30;;
14060;SDS011;7105;43.616;1.434;2022-11-15T15:37:56;12.17;;;7.97;;
14060;SDS011;7105;43.616;1.434;2022-11-15T15:40:22;11.70;;;8.20;;
14060;SDS011;7105;43.616;1.434;2022-11-15T15:42:50;13.43;;;8.47;;
14060;SDS011;7105;43.616;1.434;2022-11-15T15:45:16;10.93;;;8.67;;
14060;SDS011;7105;43.616;1.434;2022-11-15T15:47:43;11.90;;;7.60;;
14060;SDS011;7105;43.616;1.434;2022-11-15T15:52:52;10.87;;;7.60;;
14060;SDS011;7105;43.616;1.434;2022-11-15T15:55:22;11.53;;;7.90;;
14060;SDS011;7105;43.616;1.434;2022-11-15T15:57:48;11.60;;;7.57;;
14060;SDS011;7105;43.616;1.434;2022-11-15T16:00:15;10.67;;;7.77;;
14060;SDS011;7105;43.616;1.434;2022-11-15T16:02:41;11.97;;;8.10;;
14060;SDS011;7105;43.616;1.434;2022-11-15T16:05:08;13.40;;;7.67;;
14060;SDS011;7105;43.616;1.434;2022-11-15T16:07:34;12.07;;;7.63;;
14060;SDS011;7105;43.616;1.434;2022-11-15T16:10:00;13.47;;;8.67;;
14060;SDS011;7105;43.616;1.434;2022-11-15T16:14:55;10.53;;;8.17;;
14060;SDS011;7105;43.616;1.434;2022-11-15T16:17:21;13.13;;;8.60;;
14060;SDS011;7105;43.616;1.434;2022-11-15T16:19:49;12.73;;;8.43;;
14060;SDS011;7105;43.616;1.434;2022-11-15T16:22:15;11.93;;;8.27;;
14060;SDS011;7105;43.616;1.434;2022-11-15T16:24:41;12.77;;;7.50;;
14060;SDS011;7105;43.616;1.434;2022-11-15T16:27:12;12.23;;;7.00;;
14060;SDS011;7105;43.616;1.434;2022-11-15T16:29:40;12.50;;;7.37;;
14060;SDS011;7105;43.616;1.434;2022-11-15T16:32:05;10.13;;;7.30;;
14060;SDS011;7105;43.616;1.434;2022-11-15T16:34:31;10.67;;;7.40;;
14060;SDS011;7105;43.616;1.434;2022-11-15T16:36:57;11.00;;;7.90;;
14060;SDS011;7105;43.616;1.434;2022-11-15T16:39:22;12.27;;;7.70;;
14060;SDS011;7105;43.616;1.434;2022-11-15T16:41:48;13.83;;;8.20;;
14060;SDS011;7105;43.616;1.434;2022-11-15T16:44:14;10.77;;;7.10;;
14060;SDS011;7105;43.616;1.434;2022-11-15T16:46:40;12.07;;;7.93;;
14060;SDS011;7105;43.616;1.434;2022-11-15T16:49:14;13.87;;;8.13;;
14060;SDS011;7105;43.616;1.434;2022-11-15T16:51:40;13.47;;;8.60;;
14060;SDS011;7105;43.616;1.434;2022-11-15T16:54:06;12.47;;;8.20;;
14060;SDS011;7105;43.616;1.434;2022-11-15T16:56:32;13.53;;;8.40;;
14060;SDS011;7105;43.616;1.434;2022-11-15T16:58:59;11.73;;;8.07;;
14060;SDS011;7105;43.616;1.434;2022-11-15T17:01:26;11.87;;;8.10;;
14060;SDS011;7105;43.616;1.434;2022-11-15T17:03:53;16.97;;;8.77;;
14060;SDS011;7105;43.616;1.434;2022-11-15T17:06:20;14.47;;;8.60;;
14060;SDS011;7105;43.616;1.434;2022-11-15T17:08:46;11.10;;;7.90;;
14060;SDS011;7105;43.616;1.434;2022-11-15T17:11:19;14.40;;;8.83;;
14060;SDS011;7105;43.616;1.434;2022-11-15T17:13:46;12.23;;;8.43;;
14060;SDS011;7105;43.616;1.434;2022-11-15T17:16:14;14.43;;;9.00;;
14060;SDS011;7105;43.616;1.434;2022-11-15T17:18:42;11.17;;;8.70;;
14060;SDS011;7105;43.616;1.434;2022-11-15T17:21:18;12.47;;;8.77;;